sensor_id;sensor_type;location;lat;lon;timestamp;P1;durP1;ratioP1;P2;durP2;ratioP2
56712;SDS011;42589;45.536;9.032;2023-02-15T00:01:16;97.22;;;56.63;;
56712;SDS011;42589;45.536;9.032;2023-02-15T00:04:18;112.10;;;59.60;;
56712;SDS011;42589;45.536;9.032;2023-02-15T00:07:20;104.00;;;57.55;;
56712;SDS011;42589;45.536;9.032;2023-02-15T00:10:21;97.10;;;54.63;;
56712;SDS011;42589;45.536;9.032;2023-02-15T00:13:23;104.78;;;58.78;;
56712;SDS011;42589;45.536;9.032;2023-02-15T00:16:24;96.90;;;50.17;;
56712;SDS011;42589;45.536;9.032;2023-02-15T00:19:26;100.03;;;55.35;;
56712;SDS011;42589;45.536;9.032;2023-02-15T00:22:26;96.00;;;52.30;;
56712;SDS011;42589;45.536;9.032;2023-02-15T00:25:28;93.95;;;51.97;;
56712;SDS011;42589;45.536;9.032;2023-02-15T00:28:29;101.40;;;53.75;;
56712;SDS011;42589;45.536;9.032;2023-02-15T00:31:31;94.00;;;54.38;;
56712;SDS011;42589;45.536;9.032;2023-02-15T00:34:33;98.95;;;52.30;;
56712;SDS011;42589;45.536;9.032;2023-02-15T00:37:34;89.35;;;50.85;;
56712;SDS011;42589;45.536;9.032;2023-02-15T00:40:35;98.70;;;51.42;;
56712;SDS011;42589;45.536;9.032;2023-02-15T00:43:36;98.28;;;52.88;;
56712;SDS011;42589;45.536;9.032;2023-02-15T00:46:37;95.38;;;52.38;;
56712;SDS011;42589;45.536;9.032;2023-02-15T00:49:38;92.65;;;52.33;;
56712;SDS011;42589;45.536;9.032;2023-02-15T00:52:38;92.35;;;52.67;;
56712;SDS011;42589;45.536;9.032;2023-02-15T00:55:40;89.18;;;50.78;;
56712;SDS011;42589;45.536;9.032;2023-02-15T00:58:41;97.03;;;52.50;;
56712;SDS011;42589;45.536;9.032;2023-02-15T01:01:42;88.93;;;51.22;;
56712;SDS011;42589;45.536;9.032;2023-02-15T01:04:42;90.80;;;50.60;;
56712;SDS011;42589;45.536;9.032;2023-02-15T01:07:44;86.72;;;50.50;;
56712;SDS011;42589;45.536;9.032;2023-02-15T01:10:45;88.13;;;47.95;;
56712;SDS011;42589;45.536;9.032;2023-02-15T01:13:51;87.38;;;48.70;;
56712;SDS011;42589;45.536;9.032;2023-02-15T01:16:53;83.20;;;47.80;;
56712;SDS011;42589;45.536;9.032;2023-02-15T01:19:54;82.50;;;47.45;;
56712;SDS011;42589;45.536;9.032;2023-02-15T01:22:55;84.10;;;47.30;;
56712;SDS011;42589;45.536;9.032;2023-02-15T01:26:01;87.47;;;49.60;;
56712;SDS011;42589;45.536;9.032;2023-02-15T01:29:02;85.05;;;46.15;;
56712;SDS011;42589;45.536;9.032;2023-02-15T01:32:02;78.53;;;47.08;;
56712;SDS011;42589;45.536;9.032;2023-02-15T01:35:04;80.38;;;46.80;;
56712;SDS011;42589;45.536;9.032;2023-02-15T01:38:08;76.60;;;45.08;;
56712;SDS011;42589;45.536;9.032;2023-02-15T01:41:10;83.25;;;46.63;;
56712;SDS011;42589;45.536;9.032;2023-02-15T01:47:49;81.03;;;48.13;;
56712;SDS011;42589;45.536;9.032;2023-02-15T01:50:56;83.45;;;48.13;;
56712;SDS011;42589;45.536;9.032;2023-02-15T01:57:30;80.57;;;47.28;;
56712;SDS011;42589;45.536;9.032;2023-02-15T02:00:30;74.47;;;43.65;;
56712;SDS011;42589;45.536;9.032;2023-02-15T02:03:43;76.07;;;45.20;;
56712;SDS011;42589;45.536;9.032;2023-02-15T02:07:07;76.28;;;45.22;;
56712;SDS011;42589;45.536;9.032;2023-02-15T02:10:11;76.57;;;44.67;;
56712;SDS011;42589;45.536;9.032;2023-02-15T02:13:14;78.97;;;45.85;;
56712;SDS011;42589;45.536;9.032;2023-02-15T02:19:53;73.88;;;43.28;;
56712;SDS011;42589;45.536;9.032;2023-02-15T02:26:46;71.90;;;42.60;;
56712;SDS011;42589;45.536;9.032;2023-02-15T02:30:02;73.22;;;40.30;;
56712;SDS011;42589;45.536;9.032;2023-02-15T02:33:28;74.25;;;43.70;;
56712;SDS011;42589;45.536;9.032;2023-02-15T02:43:05;79.18;;;44.67;;
56712;SDS011;42589;45.536;9.032;2023-02-15T02:46:15;74.03;;;42.03;;
56712;SDS011;42589;45.536;9.032;2023-02-15T02:52:37;67.38;;;42.08;;
56712;SDS011;42589;45.536;9.032;2023-02-15T02:59:05;67.57;;;40.55;;
56712;SDS011;42589;45.536;9.032;2023-02-15T03:02:34;67.63;;;39.25;;
56712;SDS011;42589;45.536;9.032;2023-02-15T03:05:41;59.85;;;36.63;;
56712;SDS011;42589;45.536;9.032;2023-02-15T03:08:47;64.47;;;37.63;;
56712;SDS011;42589;45.536;9.032;2023-02-15T03:11:51;63.42;;;35.95;;
56712;SDS011;42589;45.536;9.032;2023-02-15T03:18:03;58.10;;;36.50;;
56712;SDS011;42589;45.536;9.032;2023-02-15T03:21:04;62.75;;;36.55;;
56712;SDS011;42589;45.536;9.032;2023-02-15T03:24:12;61.75;;;35.47;;
56712;SDS011;42589;45.536;9.032;2023-02-15T03:27:20;59.78;;;36.90;;
56712;SDS011;42589;45.536;9.032;2023-02-15T03:30:25;59.70;;;36.75;;
56712;SDS011;42589;45.536;9.032;2023-02-15T03:33:28;58.80;;;36.97;;
56712;SDS011;42589;45.536;9.032;2023-02-15T03:39:51;62.10;;;36.80;;
56712;SDS011;42589;45.536;9.032;2023-02-15T03:43:24;59.78;;;35.17;;
56712;SDS011;42589;45.536;9.032;2023-02-15T03:46:48;57.72;;;36.22;;
56712;SDS011;42589;45.536;9.032;2023-02-15T03:53:26;55.30;;;34.28;;
56712;SDS011;42589;45.536;9.032;2023-02-15T03:56:27;55.42;;;34.83;;
56712;SDS011;42589;45.536;9.032;2023-02-15T03:59:28;62.22;;;37.08;;
56712;SDS011;42589;45.536;9.032;2023-02-15T04:05:59;57.15;;;34.83;;
56712;SDS011;42589;45.536;9.032;2023-02-15T04:09:03;60.33;;;34.28;;
56712;SDS011;42589;45.536;9.032;2023-02-15T04:12:22;64.40;;;37.42;;
56712;SDS011;42589;45.536;9.032;2023-02-15T04:15:23;60.88;;;35.45;;
56712;SDS011;42589;45.536;9.032;2023-02-15T04:18:42;56.85;;;34.72;;
56712;SDS011;42589;45.536;9.032;2023-02-15T04:22:02;62.80;;;38.05;;
56712;SDS011;42589;45.536;9.032;2023-02-15T04:25:20;62.28;;;36.20;;
56712;SDS011;42589;45.536;9.032;2023-02-15T04:28:21;59.67;;;36.60;;
56712;SDS011;42589;45.536;9.032;2023-02-15T04:31:22;61.42;;;36.83;;
56712;SDS011;42589;45.536;9.032;2023-02-15T04:34:24;55.45;;;33.78;;
56712;SDS011;42589;45.536;9.032;2023-02-15T04:37:25;58.55;;;35.28;;
56712;SDS011;42589;45.536;9.032;2023-02-15T04:40:26;58.40;;;32.95;;
56712;SDS011;42589;45.536;9.032;2023-02-15T04:43:27;58.40;;;35.17;;
56712;SDS011;42589;45.536;9.032;2023-02-15T04:46:27;57.33;;;34.85;;
56712;SDS011;42589;45.536;9.032;2023-02-15T04:49:29;58.55;;;35.45;;
56712;SDS011;42589;45.536;9.032;2023-02-15T04:52:33;54.95;;;33.08;;
56712;SDS011;42589;45.536;9.032;2023-02-15T04:55:34;54.28;;;33.05;;
56712;SDS011;42589;45.536;9.032;2023-02-15T04:58:34;53.28;;;32.15;;
56712;SDS011;42589;45.536;9.032;2023-02-15T05:01:36;56.70;;;33.55;;
56712;SDS011;42589;45.536;9.032;2023-02-15T05:04:37;55.63;;;33.03;;
56712;SDS011;42589;45.536;9.032;2023-02-15T05:07:39;55.03;;;31.67;;
56712;SDS011;42589;45.536;9.032;2023-02-15T05:10:40;55.70;;;34.63;;
56712;SDS011;42589;45.536;9.032;2023-02-15T05:13:41;59.30;;;33.03;;
56712;SDS011;42589;45.536;9.032;2023-02-15T05:16:41;48.30;;;29.15;;
56712;SDS011;42589;45.536;9.032;2023-02-15T05:19:42;51.42;;;31.20;;
56712;SDS011;42589;45.536;9.032;2023-02-15T05:22:43;53.45;;;30.88;;
56712;SDS011;42589;45.536;9.032;2023-02-15T05:25:48;53.45;;;30.98;;
56712;SDS011;42589;45.536;9.032;2023-02-15T05:29:08;52.33;;;31.02;;
56712;SDS011;42589;45.536;9.032;2023-02-15T05:32:11;50.22;;;29.50;;
56712;SDS011;42589;45.536;9.032;2023-02-15T05:35:14;53.45;;;29.67;;
56712;SDS011;42589;45.536;9.032;2023-02-15T05:38:15;48.33;;;28.25;;
56712;SDS011;42589;45.536;9.032;2023-02-15T05:41:18;47.60;;;28.08;;
56712;SDS011;42589;45.536;9.032;2023-02-15T05:44:18;45.88;;;26.83;;
56712;SDS011;42589;45.536;9.032;2023-02-15T05:47:19;45.65;;;28.73;;
56712;SDS011;42589;45.536;9.032;2023-02-15T05:50:20;50.95;;;28.38;;
56712;SDS011;42589;45.536;9.032;2023-02-15T05:53:20;54.60;;;28.65;;
56712;SDS011;42589;45.536;9.032;2023-02-15T05:56:21;49.83;;;28.55;;
56712;SDS011;42589;45.536;9.032;2023-02-15T05:59:22;43.47;;;26.83;;
56712;SDS011;42589;45.536;9.032;2023-02-15T06:02:23;48.38;;;26.02;;
56712;SDS011;42589;45.536;9.032;2023-02-15T06:05:24;47.92;;;26.10;;
56712;SDS011;42589;45.536;9.032;2023-02-15T06:08:26;49.92;;;28.15;;
56712;SDS011;42589;45.536;9.032;2023-02-15T06:11:27;45.83;;;25.30;;
56712;SDS011;42589;45.536;9.032;2023-02-15T06:14:28;48.60;;;27.73;;
56712;SDS011;42589;45.536;9.032;2023-02-15T06:17:29;49.38;;;27.17;;
56712;SDS011;42589;45.536;9.032;2023-02-15T06:20:30;46.67;;;26.65;;
56712;SDS011;42589;45.536;9.032;2023-02-15T06:23:32;46.08;;;24.67;;
56712;SDS011;42589;45.536;9.032;2023-02-15T06:26:33;53.67;;;26.85;;
56712;SDS011;42589;45.536;9.032;2023-02-15T06:29:34;50.15;;;27.23;;
56712;SDS011;42589;45.536;9.032;2023-02-15T06:32:35;49.85;;;27.05;;
56712;SDS011;42589;45.536;9.032;2023-02-15T06:35:36;47.47;;;26.98;;
56712;SDS011;42589;45.536;9.032;2023-02-15T06:38:38;52.15;;;27.40;;
56712;SDS011;42589;45.536;9.032;2023-02-15T06:41:39;47.35;;;26.85;;
56712;SDS011;42589;45.536;9.032;2023-02-15T06:44:42;48.03;;;26.30;;
56712;SDS011;42589;45.536;9.032;2023-02-15T06:47:44;48.33;;;27.08;;
56712;SDS011;42589;45.536;9.032;2023-02-15T06:50:44;43.70;;;25.90;;
56712;SDS011;42589;45.536;9.032;2023-02-15T06:53:45;49.40;;;26.15;;
56712;SDS011;42589;45.536;9.032;2023-02-15T06:56:47;47.15;;;25.88;;
56712;SDS011;42589;45.536;9.032;2023-02-15T06:59:48;50.58;;;29.67;;
56712;SDS011;42589;45.536;9.032;2023-02-15T07:02:57;56.45;;;27.00;;
56712;SDS011;42589;45.536;9.032;2023-02-15T07:05:59;51.35;;;26.25;;
56712;SDS011;42589;45.536;9.032;2023-02-15T07:09:02;48.72;;;27.20;;
56712;SDS011;42589;45.536;9.032;2023-02-15T07:12:02;50.97;;;27.92;;
56712;SDS011;42589;45.536;9.032;2023-02-15T07:15:22;43.13;;;21.83;;
56712;SDS011;42589;45.536;9.032;2023-02-15T07:18:23;38.40;;;24.10;;
56712;SDS011;42589;45.536;9.032;2023-02-15T07:21:24;50.92;;;27.02;;
56712;SDS011;42589;45.536;9.032;2023-02-15T07:24:26;42.67;;;23.67;;
56712;SDS011;42589;45.536;9.032;2023-02-15T07:27:27;37.70;;;20.00;;
56712;SDS011;42589;45.536;9.032;2023-02-15T07:30:28;51.58;;;20.77;;
56712;SDS011;42589;45.536;9.032;2023-02-15T07:33:30;38.45;;;20.27;;
56712;SDS011;42589;45.536;9.032;2023-02-15T07:36:32;39.35;;;21.35;;
56712;SDS011;42589;45.536;9.032;2023-02-15T07:39:32;39.03;;;20.83;;
56712;SDS011;42589;45.536;9.032;2023-02-15T07:42:33;36.78;;;23.10;;
56712;SDS011;42589;45.536;9.032;2023-02-15T07:45:34;43.53;;;22.98;;
56712;SDS011;42589;45.536;9.032;2023-02-15T07:48:35;48.75;;;23.55;;
56712;SDS011;42589;45.536;9.032;2023-02-15T07:51:37;42.88;;;21.25;;
56712;SDS011;42589;45.536;9.032;2023-02-15T07:54:38;48.38;;;22.50;;
56712;SDS011;42589;45.536;9.032;2023-02-15T07:57:43;41.50;;;22.40;;
56712;SDS011;42589;45.536;9.032;2023-02-15T08:00:46;48.15;;;26.23;;
56712;SDS011;42589;45.536;9.032;2023-02-15T08:04:02;46.63;;;25.10;;
56712;SDS011;42589;45.536;9.032;2023-02-15T08:07:03;46.75;;;24.50;;
56712;SDS011;42589;45.536;9.032;2023-02-15T08:10:04;38.58;;;23.88;;
56712;SDS011;42589;45.536;9.032;2023-02-15T08:13:08;38.40;;;23.30;;
56712;SDS011;42589;45.536;9.032;2023-02-15T08:16:09;38.08;;;22.60;;
56712;SDS011;42589;45.536;9.032;2023-02-15T08:19:11;42.97;;;23.05;;
56712;SDS011;42589;45.536;9.032;2023-02-15T08:22:31;38.15;;;22.23;;
56712;SDS011;42589;45.536;9.032;2023-02-15T08:25:34;42.80;;;22.10;;
56712;SDS011;42589;45.536;9.032;2023-02-15T08:28:34;40.17;;;23.30;;
56712;SDS011;42589;45.536;9.032;2023-02-15T08:31:35;47.63;;;24.27;;
56712;SDS011;42589;45.536;9.032;2023-02-15T08:34:38;50.03;;;25.70;;
56712;SDS011;42589;45.536;9.032;2023-02-15T08:37:40;52.53;;;25.63;;
56712;SDS011;42589;45.536;9.032;2023-02-15T08:40:42;51.58;;;27.60;;
56712;SDS011;42589;45.536;9.032;2023-02-15T08:43:43;54.97;;;25.75;;
56712;SDS011;42589;45.536;9.032;2023-02-15T08:46:44;52.95;;;27.67;;
56712;SDS011;42589;45.536;9.032;2023-02-15T08:49:47;52.15;;;28.02;;
56712;SDS011;42589;45.536;9.032;2023-02-15T08:52:48;55.60;;;28.67;;
56712;SDS011;42589;45.536;9.032;2023-02-15T08:55:56;56.17;;;31.55;;
56712;SDS011;42589;45.536;9.032;2023-02-15T08:58:57;52.15;;;28.60;;
56712;SDS011;42589;45.536;9.032;2023-02-15T09:01:57;49.92;;;31.70;;
56712;SDS011;42589;45.536;9.032;2023-02-15T09:04:59;51.85;;;30.48;;
56712;SDS011;42589;45.536;9.032;2023-02-15T09:08:00;48.85;;;31.33;;
56712;SDS011;42589;45.536;9.032;2023-02-15T09:11:06;57.42;;;32.88;;
56712;SDS011;42589;45.536;9.032;2023-02-15T09:14:11;55.42;;;30.92;;
56712;SDS011;42589;45.536;9.032;2023-02-15T09:17:15;49.85;;;31.88;;
56712;SDS011;42589;45.536;9.032;2023-02-15T09:20:16;54.35;;;34.47;;
56712;SDS011;42589;45.536;9.032;2023-02-15T09:23:17;51.00;;;32.33;;
56712;SDS011;42589;45.536;9.032;2023-02-15T09:26:19;56.40;;;34.17;;
56712;SDS011;42589;45.536;9.032;2023-02-15T09:29:21;58.85;;;34.55;;
56712;SDS011;42589;45.536;9.032;2023-02-15T09:32:22;57.40;;;35.10;;
56712;SDS011;42589;45.536;9.032;2023-02-15T09:35:24;62.13;;;35.70;;
56712;SDS011;42589;45.536;9.032;2023-02-15T09:38:25;64.05;;;36.85;;
56712;SDS011;42589;45.536;9.032;2023-02-15T09:44:56;67.65;;;40.15;;
56712;SDS011;42589;45.536;9.032;2023-02-15T09:51:38;75.40;;;41.47;;
56712;SDS011;42589;45.536;9.032;2023-02-15T09:54:53;68.05;;;40.08;;
56712;SDS011;42589;45.536;9.032;2023-02-15T10:19:24;68.70;;;41.80;;
56712;SDS011;42589;45.536;9.032;2023-02-15T10:29:38;70.57;;;42.28;;
56712;SDS011;42589;45.536;9.032;2023-02-15T10:36:04;74.25;;;43.20;;
56712;SDS011;42589;45.536;9.032;2023-02-15T10:39:25;69.15;;;42.08;;
56712;SDS011;42589;45.536;9.032;2023-02-15T11:06:13;79.40;;;45.05;;
56712;SDS011;42589;45.536;9.032;2023-02-15T11:09:22;83.35;;;45.83;;
56712;SDS011;42589;45.536;9.032;2023-02-15T11:12:28;82.75;;;48.25;;
56712;SDS011;42589;45.536;9.032;2023-02-15T11:22:11;81.90;;;48.22;;
56712;SDS011;42589;45.536;9.032;2023-02-15T11:25:22;84.28;;;49.08;;
56712;SDS011;42589;45.536;9.032;2023-02-15T11:28:31;87.50;;;49.92;;
56712;SDS011;42589;45.536;9.032;2023-02-15T11:31:45;83.22;;;47.83;;
56712;SDS011;42589;45.536;9.032;2023-02-15T11:34:58;84.20;;;47.40;;
56712;SDS011;42589;45.536;9.032;2023-02-15T11:38:14;78.88;;;47.70;;
56712;SDS011;42589;45.536;9.032;2023-02-15T11:41:21;81.70;;;47.28;;
56712;SDS011;42589;45.536;9.032;2023-02-15T11:44:35;93.50;;;50.65;;
56712;SDS011;42589;45.536;9.032;2023-02-15T11:47:42;89.55;;;50.30;;
56712;SDS011;42589;45.536;9.032;2023-02-15T11:50:43;86.78;;;50.30;;
56712;SDS011;42589;45.536;9.032;2023-02-15T11:53:48;88.97;;;49.45;;
56712;SDS011;42589;45.536;9.032;2023-02-15T11:56:50;85.65;;;49.25;;
56712;SDS011;42589;45.536;9.032;2023-02-15T12:00:10;85.22;;;49.35;;
56712;SDS011;42589;45.536;9.032;2023-02-15T12:03:15;92.88;;;51.25;;
56712;SDS011;42589;45.536;9.032;2023-02-15T12:06:32;88.97;;;50.03;;
56712;SDS011;42589;45.536;9.032;2023-02-15T12:09:36;88.90;;;48.78;;
56712;SDS011;42589;45.536;9.032;2023-02-15T12:12:45;89.13;;;50.55;;
56712;SDS011;42589;45.536;9.032;2023-02-15T12:15:56;88.82;;;48.92;;
56712;SDS011;42589;45.536;9.032;2023-02-15T12:19:00;90.55;;;49.90;;
56712;SDS011;42589;45.536;9.032;2023-02-15T12:22:02;91.10;;;51.58;;
56712;SDS011;42589;45.536;9.032;2023-02-15T12:25:26;89.53;;;50.30;;
56712;SDS011;42589;45.536;9.032;2023-02-15T12:28:36;92.13;;;50.00;;
56712;SDS011;42589;45.536;9.032;2023-02-15T12:31:40;99.63;;;52.92;;
56712;SDS011;42589;45.536;9.032;2023-02-15T12:34:44;89.00;;;50.67;;
56712;SDS011;42589;45.536;9.032;2023-02-15T12:37:56;88.50;;;51.03;;
56712;SDS011;42589;45.536;9.032;2023-02-15T12:44:26;92.68;;;51.45;;
56712;SDS011;42589;45.536;9.032;2023-02-15T12:47:29;92.30;;;51.28;;
56712;SDS011;42589;45.536;9.032;2023-02-15T12:50:31;104.78;;;52.78;;
56712;SDS011;42589;45.536;9.032;2023-02-15T12:53:33;86.00;;;51.05;;
56712;SDS011;42589;45.536;9.032;2023-02-15T12:56:35;90.20;;;51.22;;
56712;SDS011;42589;45.536;9.032;2023-02-15T12:59:36;93.50;;;51.67;;
56712;SDS011;42589;45.536;9.032;2023-02-15T13:05:49;95.10;;;54.27;;
56712;SDS011;42589;45.536;9.032;2023-02-15T13:08:56;96.25;;;53.30;;
56712;SDS011;42589;45.536;9.032;2023-02-15T13:12:09;97.20;;;51.08;;
56712;SDS011;42589;45.536;9.032;2023-02-15T13:15:32;89.00;;;50.33;;
56712;SDS011;42589;45.536;9.032;2023-02-15T13:18:58;90.93;;;51.53;;
56712;SDS011;42589;45.536;9.032;2023-02-15T13:22:06;95.82;;;52.50;;
56712;SDS011;42589;45.536;9.032;2023-02-15T13:25:20;98.78;;;54.33;;
56712;SDS011;42589;45.536;9.032;2023-02-15T13:28:24;91.60;;;53.22;;
56712;SDS011;42589;45.536;9.032;2023-02-15T13:31:32;94.85;;;53.80;;
56712;SDS011;42589;45.536;9.032;2023-02-15T13:34:37;101.50;;;54.42;;
56712;SDS011;42589;45.536;9.032;2023-02-15T13:41:11;94.80;;;55.08;;
56712;SDS011;42589;45.536;9.032;2023-02-15T13:44:21;102.93;;;54.53;;
56712;SDS011;42589;45.536;9.032;2023-02-15T13:54:12;94.50;;;55.50;;
56712;SDS011;42589;45.536;9.032;2023-02-15T14:07:33;94.60;;;54.92;;
56712;SDS011;42589;45.536;9.032;2023-02-15T14:14:00;93.95;;;54.75;;
56712;SDS011;42589;45.536;9.032;2023-02-15T14:17:29;103.07;;;53.47;;
56712;SDS011;42589;45.536;9.032;2023-02-15T14:27:17;93.25;;;52.95;;
56712;SDS011;42589;45.536;9.032;2023-02-15T14:30:41;101.13;;;54.95;;
56712;SDS011;42589;45.536;9.032;2023-02-15T14:33:47;98.65;;;53.72;;
56712;SDS011;42589;45.536;9.032;2023-02-15T14:36:55;96.53;;;53.20;;
56712;SDS011;42589;45.536;9.032;2023-02-15T14:40:03;92.82;;;49.40;;
56712;SDS011;42589;45.536;9.032;2023-02-15T14:50:32;99.55;;;47.75;;
56712;SDS011;42589;45.536;9.032;2023-02-15T14:53:37;86.57;;;48.78;;
56712;SDS011;42589;45.536;9.032;2023-02-15T14:56:38;97.65;;;51.65;;
56712;SDS011;42589;45.536;9.032;2023-02-15T15:03:01;101.03;;;53.13;;
56712;SDS011;42589;45.536;9.032;2023-02-15T15:06:31;99.90;;;51.97;;
56712;SDS011;42589;45.536;9.032;2023-02-15T15:10:06;104.15;;;51.60;;
56712;SDS011;42589;45.536;9.032;2023-02-15T15:13:57;103.80;;;52.30;;
56712;SDS011;42589;45.536;9.032;2023-02-15T15:17:03;106.78;;;51.00;;
56712;SDS011;42589;45.536;9.032;2023-02-15T15:23:38;103.13;;;52.47;;
56712;SDS011;42589;45.536;9.032;2023-02-15T15:26:45;101.35;;;50.13;;
56712;SDS011;42589;45.536;9.032;2023-02-15T15:29:50;103.60;;;51.47;;
56712;SDS011;42589;45.536;9.032;2023-02-15T15:49:59;102.00;;;49.80;;
56712;SDS011;42589;45.536;9.032;2023-02-15T15:53:01;100.38;;;48.25;;
56712;SDS011;42589;45.536;9.032;2023-02-15T15:56:05;93.15;;;48.22;;
56712;SDS011;42589;45.536;9.032;2023-02-15T15:59:13;101.57;;;49.55;;
56712;SDS011;42589;45.536;9.032;2023-02-15T16:02:21;96.97;;;47.70;;
56712;SDS011;42589;45.536;9.032;2023-02-15T16:05:23;96.40;;;46.88;;
56712;SDS011;42589;45.536;9.032;2023-02-15T16:11:32;98.45;;;46.60;;
56712;SDS011;42589;45.536;9.032;2023-02-15T16:14:37;93.00;;;45.88;;
56712;SDS011;42589;45.536;9.032;2023-02-15T16:17:43;96.82;;;46.50;;
56712;SDS011;42589;45.536;9.032;2023-02-15T16:21:00;94.57;;;48.00;;
56712;SDS011;42589;45.536;9.032;2023-02-15T16:24:06;93.63;;;47.38;;
56712;SDS011;42589;45.536;9.032;2023-02-15T16:33:23;96.65;;;47.20;;
56712;SDS011;42589;45.536;9.032;2023-02-15T16:36:36;98.03;;;48.55;;
56712;SDS011;42589;45.536;9.032;2023-02-15T16:39:40;100.82;;;48.70;;
56712;SDS011;42589;45.536;9.032;2023-02-15T16:42:42;96.35;;;47.95;;
56712;SDS011;42589;45.536;9.032;2023-02-15T16:45:44;103.10;;;48.72;;
56712;SDS011;42589;45.536;9.032;2023-02-15T16:48:48;98.00;;;48.45;;
56712;SDS011;42589;45.536;9.032;2023-02-15T16:52:00;98.30;;;47.72;;
56712;SDS011;42589;45.536;9.032;2023-02-15T16:55:03;98.70;;;49.65;;
56712;SDS011;42589;45.536;9.032;2023-02-15T16:58:06;97.00;;;48.53;;
56712;SDS011;42589;45.536;9.032;2023-02-15T17:01:14;105.88;;;50.88;;
56712;SDS011;42589;45.536;9.032;2023-02-15T17:07:21;107.32;;;52.97;;
56712;SDS011;42589;45.536;9.032;2023-02-15T17:10:26;112.38;;;53.40;;
56712;SDS011;42589;45.536;9.032;2023-02-15T17:13:29;104.20;;;51.38;;
56712;SDS011;42589;45.536;9.032;2023-02-15T17:16:31;104.60;;;52.08;;
56712;SDS011;42589;45.536;9.032;2023-02-15T17:22:49;107.05;;;53.50;;
56712;SDS011;42589;45.536;9.032;2023-02-15T17:25:51;111.47;;;53.17;;
56712;SDS011;42589;45.536;9.032;2023-02-15T17:28:52;110.18;;;52.97;;
56712;SDS011;42589;45.536;9.032;2023-02-15T17:31:56;119.63;;;53.58;;
56712;SDS011;42589;45.536;9.032;2023-02-15T17:38:21;101.53;;;49.55;;
56712;SDS011;42589;45.536;9.032;2023-02-15T17:41:23;114.28;;;52.70;;
56712;SDS011;42589;45.536;9.032;2023-02-15T17:44:26;103.40;;;50.60;;
56712;SDS011;42589;45.536;9.032;2023-02-15T17:47:28;110.28;;;52.38;;
56712;SDS011;42589;45.536;9.032;2023-02-15T17:50:31;109.88;;;51.45;;
56712;SDS011;42589;45.536;9.032;2023-02-15T17:53:33;114.03;;;52.65;;
56712;SDS011;42589;45.536;9.032;2023-02-15T17:56:36;104.57;;;50.20;;
56712;SDS011;42589;45.536;9.032;2023-02-15T17:59:37;106.47;;;51.70;;
56712;SDS011;42589;45.536;9.032;2023-02-15T18:02:56;102.80;;;51.00;;
56712;SDS011;42589;45.536;9.032;2023-02-15T18:06:15;111.70;;;52.30;;
56712;SDS011;42589;45.536;9.032;2023-02-15T18:09:34;111.85;;;53.08;;
56712;SDS011;42589;45.536;9.032;2023-02-15T18:12:53;114.78;;;53.70;;
56712;SDS011;42589;45.536;9.032;2023-02-15T18:15:54;122.53;;;53.28;;
56712;SDS011;42589;45.536;9.032;2023-02-15T18:18:56;116.22;;;52.78;;
56712;SDS011;42589;45.536;9.032;2023-02-15T18:21:57;122.30;;;53.30;;
56712;SDS011;42589;45.536;9.032;2023-02-15T18:24:58;121.63;;;54.20;;
56712;SDS011;42589;45.536;9.032;2023-02-15T18:27:59;127.88;;;55.97;;
56712;SDS011;42589;45.536;9.032;2023-02-15T18:31:01;134.13;;;55.35;;
56712;SDS011;42589;45.536;9.032;2023-02-15T18:34:02;122.13;;;55.47;;
56712;SDS011;42589;45.536;9.032;2023-02-15T18:37:04;125.55;;;55.08;;
56712;SDS011;42589;45.536;9.032;2023-02-15T18:40:17;132.98;;;55.72;;
56712;SDS011;42589;45.536;9.032;2023-02-15T18:43:20;125.68;;;56.65;;
56712;SDS011;42589;45.536;9.032;2023-02-15T18:46:21;130.43;;;61.20;;
56712;SDS011;42589;45.536;9.032;2023-02-15T18:49:22;123.38;;;56.67;;
56712;SDS011;42589;45.536;9.032;2023-02-15T18:52:23;130.95;;;62.25;;
56712;SDS011;42589;45.536;9.032;2023-02-15T18:55:28;130.02;;;64.28;;
56712;SDS011;42589;45.536;9.032;2023-02-15T18:58:29;122.88;;;61.88;;
56712;SDS011;42589;45.536;9.032;2023-02-15T19:01:30;130.02;;;62.15;;
56712;SDS011;42589;45.536;9.032;2023-02-15T19:04:31;130.10;;;64.85;;
56712;SDS011;42589;45.536;9.032;2023-02-15T19:07:33;142.93;;;70.15;;
56712;SDS011;42589;45.536;9.032;2023-02-15T19:10:36;133.30;;;65.97;;
56712;SDS011;42589;45.536;9.032;2023-02-15T19:13:37;124.10;;;64.32;;
56712;SDS011;42589;45.536;9.032;2023-02-15T19:16:39;133.32;;;65.35;;
56712;SDS011;42589;45.536;9.032;2023-02-15T19:19:41;126.97;;;63.13;;
56712;SDS011;42589;45.536;9.032;2023-02-15T19:22:42;130.00;;;64.03;;
56712;SDS011;42589;45.536;9.032;2023-02-15T19:25:45;123.13;;;62.72;;
56712;SDS011;42589;45.536;9.032;2023-02-15T19:28:48;128.52;;;63.22;;
56712;SDS011;42589;45.536;9.032;2023-02-15T19:31:49;140.65;;;66.50;;
56712;SDS011;42589;45.536;9.032;2023-02-15T19:34:50;135.30;;;65.70;;
56712;SDS011;42589;45.536;9.032;2023-02-15T19:37:51;136.57;;;66.75;;
56712;SDS011;42589;45.536;9.032;2023-02-15T19:41:01;130.38;;;65.47;;
56712;SDS011;42589;45.536;9.032;2023-02-15T19:44:06;132.20;;;67.40;;
56712;SDS011;42589;45.536;9.032;2023-02-15T19:47:11;131.10;;;66.75;;
56712;SDS011;42589;45.536;9.032;2023-02-15T19:50:14;128.65;;;65.60;;
56712;SDS011;42589;45.536;9.032;2023-02-15T19:53:22;130.07;;;65.45;;
56712;SDS011;42589;45.536;9.032;2023-02-15T19:56:25;131.82;;;66.25;;
56712;SDS011;42589;45.536;9.032;2023-02-15T19:59:28;134.93;;;65.82;;
56712;SDS011;42589;45.536;9.032;2023-02-15T20:02:30;129.63;;;65.93;;
56712;SDS011;42589;45.536;9.032;2023-02-15T20:05:32;130.07;;;65.95;;
56712;SDS011;42589;45.536;9.032;2023-02-15T20:08:37;124.45;;;65.07;;
56712;SDS011;42589;45.536;9.032;2023-02-15T20:11:37;120.35;;;63.78;;
56712;SDS011;42589;45.536;9.032;2023-02-15T20:14:38;123.57;;;64.18;;
56712;SDS011;42589;45.536;9.032;2023-02-15T20:17:41;132.07;;;70.88;;
56712;SDS011;42589;45.536;9.032;2023-02-15T20:20:43;129.05;;;66.50;;
56712;SDS011;42589;45.536;9.032;2023-02-15T20:23:53;126.03;;;64.30;;
56712;SDS011;42589;45.536;9.032;2023-02-15T20:26:55;134.75;;;70.30;;
56712;SDS011;42589;45.536;9.032;2023-02-15T20:29:55;131.85;;;67.30;;
56712;SDS011;42589;45.536;9.032;2023-02-15T20:32:59;130.23;;;70.05;;
56712;SDS011;42589;45.536;9.032;2023-02-15T20:36:01;134.68;;;69.53;;
56712;SDS011;42589;45.536;9.032;2023-02-15T20:39:04;135.07;;;71.55;;
56712;SDS011;42589;45.536;9.032;2023-02-15T20:42:15;134.23;;;72.25;;
56712;SDS011;42589;45.536;9.032;2023-02-15T20:48:22;136.10;;;74.00;;
56712;SDS011;42589;45.536;9.032;2023-02-15T20:51:23;135.82;;;71.95;;
56712;SDS011;42589;45.536;9.032;2023-02-15T20:54:26;141.02;;;74.85;;
56712;SDS011;42589;45.536;9.032;2023-02-15T20:57:30;134.40;;;73.53;;
56712;SDS011;42589;45.536;9.032;2023-02-15T21:00:35;137.95;;;74.25;;
56712;SDS011;42589;45.536;9.032;2023-02-15T21:03:37;136.30;;;74.90;;
56712;SDS011;42589;45.536;9.032;2023-02-15T21:06:38;135.32;;;74.03;;
56712;SDS011;42589;45.536;9.032;2023-02-15T21:09:40;139.55;;;76.57;;
56712;SDS011;42589;45.536;9.032;2023-02-15T21:12:41;140.18;;;75.90;;
56712;SDS011;42589;45.536;9.032;2023-02-15T21:15:43;143.60;;;80.38;;
56712;SDS011;42589;45.536;9.032;2023-02-15T21:18:45;136.40;;;76.30;;